sensor_id;sensor_type;location;lat;lon;timestamp;P1;durP1;ratioP1;P2;durP2;ratioP2
39674;SDS011;27790;50.840;4.386;2023-09-19T00:00:37;16.10;;;3.90;;
39674;SDS011;27790;50.840;4.386;2023-09-19T00:03:03;9.10;;;2.70;;
39674;SDS011;27790;50.840;4.386;2023-09-19T00:05:33;12.73;;;2.50;;
39674;SDS011;27790;50.840;4.386;2023-09-19T00:08:00;9.80;;;2.50;;
39674;SDS011;27790;50.840;4.386;2023-09-19T00:10:28;10.73;;;1.90;;
39674;SDS011;27790;50.840;4.386;2023-09-19T00:12:59;15.07;;;2.40;;
39674;SDS011;27790;50.840;4.386;2023-09-19T00:15:25;18.98;;;3.13;;
39674;SDS011;27790;50.840;4.386;2023-09-19T00:17:55;8.95;;;2.17;;
39674;SDS011;27790;50.840;4.386;2023-09-19T00:20:21;19.13;;;3.13;;
39674;SDS011;27790;50.840;4.386;2023-09-19T00:22:48;23.85;;;4.00;;
39674;SDS011;27790;50.840;4.386;2023-09-19T00:25:18;7.47;;;1.85;;
39674;SDS011;27790;50.840;4.386;2023-09-19T00:27:45;9.23;;;1.80;;
39674;SDS011;27790;50.840;4.386;2023-09-19T00:30:14;14.00;;;2.30;;
39674;SDS011;27790;50.840;4.386;2023-09-19T00:32:47;6.05;;;1.80;;
39674;SDS011;27790;50.840;4.386;2023-09-19T00:35:16;14.90;;;2.75;;
39674;SDS011;27790;50.840;4.386;2023-09-19T00:37:42;9.32;;;2.60;;
39674;SDS011;27790;50.840;4.386;2023-09-19T00:40:08;9.20;;;2.40;;
39674;SDS011;27790;50.840;4.386;2023-09-19T00:42:38;11.23;;;2.30;;
39674;SDS011;27790;50.840;4.386;2023-09-19T00:45:06;13.68;;;2.80;;
39674;SDS011;27790;50.840;4.386;2023-09-19T00:47:39;17.00;;;2.40;;
39674;SDS011;27790;50.840;4.386;2023-09-19T00:50:15;6.07;;;1.90;;
39674;SDS011;27790;50.840;4.386;2023-09-19T00:52:47;12.90;;;2.72;;
39674;SDS011;27790;50.840;4.386;2023-09-19T00:55:15;10.43;;;3.15;;
39674;SDS011;27790;50.840;4.386;2023-09-19T00:57:41;12.30;;;2.60;;
39674;SDS011;27790;50.840;4.386;2023-09-19T01:00:09;7.20;;;2.10;;
39674;SDS011;27790;50.840;4.386;2023-09-19T01:02:43;16.15;;;2.20;;
39674;SDS011;27790;50.840;4.386;2023-09-19T01:05:09;14.60;;;3.33;;
39674;SDS011;27790;50.840;4.386;2023-09-19T01:07:35;16.33;;;3.33;;
39674;SDS011;27790;50.840;4.386;2023-09-19T01:10:04;13.88;;;2.92;;
39674;SDS011;27790;50.840;4.386;2023-09-19T01:29:12;12.10;;;2.25;;
39674;SDS011;27790;50.840;4.386;2023-09-19T01:31:59;17.85;;;3.33;;
39674;SDS011;27790;50.840;4.386;2023-09-19T01:34:42;9.73;;;2.10;;
39674;SDS011;27790;50.840;4.386;2023-09-19T01:37:10;9.57;;;2.28;;
39674;SDS011;27790;50.840;4.386;2023-09-19T01:39:36;14.40;;;2.78;;
39674;SDS011;27790;50.840;4.386;2023-09-19T01:45:03;10.48;;;2.55;;
39674;SDS011;27790;50.840;4.386;2023-09-19T01:51:00;19.80;;;3.00;;
39674;SDS011;27790;50.840;4.386;2023-09-19T01:53:41;5.63;;;1.90;;
39674;SDS011;27790;50.840;4.386;2023-09-19T01:56:21;15.70;;;2.95;;
39674;SDS011;27790;50.840;4.386;2023-09-19T01:58:54;11.77;;;2.00;;
39674;SDS011;27790;50.840;4.386;2023-09-19T02:01:24;15.73;;;2.83;;
39674;SDS011;27790;50.840;4.386;2023-09-19T02:03:51;10.30;;;2.00;;
39674;SDS011;27790;50.840;4.386;2023-09-19T02:06:18;14.77;;;2.88;;
39674;SDS011;27790;50.840;4.386;2023-09-19T02:08:44;5.72;;;1.80;;
39674;SDS011;27790;50.840;4.386;2023-09-19T02:11:10;16.70;;;3.35;;
39674;SDS011;27790;50.840;4.386;2023-09-19T02:13:38;9.63;;;2.50;;
39674;SDS011;27790;50.840;4.386;2023-09-19T02:16:03;13.18;;;2.55;;
39674;SDS011;27790;50.840;4.386;2023-09-19T02:18:29;14.07;;;2.20;;
39674;SDS011;27790;50.840;4.386;2023-09-19T02:20:55;12.13;;;2.70;;
39674;SDS011;27790;50.840;4.386;2023-09-19T02:23:23;10.32;;;2.40;;
39674;SDS011;27790;50.840;4.386;2023-09-19T02:25:53;14.32;;;2.28;;
39674;SDS011;27790;50.840;4.386;2023-09-19T02:28:19;15.93;;;2.80;;
39674;SDS011;27790;50.840;4.386;2023-09-19T02:30:48;8.75;;;2.35;;
39674;SDS011;27790;50.840;4.386;2023-09-19T02:33:14;10.73;;;2.38;;
39674;SDS011;27790;50.840;4.386;2023-09-19T02:35:40;15.35;;;2.55;;
39674;SDS011;27790;50.840;4.386;2023-09-19T02:38:06;13.00;;;3.33;;
39674;SDS011;27790;50.840;4.386;2023-09-19T02:40:36;12.63;;;2.13;;
39674;SDS011;27790;50.840;4.386;2023-09-19T02:43:02;12.88;;;3.25;;
39674;SDS011;27790;50.840;4.386;2023-09-19T02:45:28;11.05;;;2.53;;
39674;SDS011;27790;50.840;4.386;2023-09-19T02:47:55;12.93;;;3.22;;
39674;SDS011;27790;50.840;4.386;2023-09-19T02:50:20;9.35;;;2.70;;
39674;SDS011;27790;50.840;4.386;2023-09-19T02:52:46;12.80;;;2.85;;
39674;SDS011;27790;50.840;4.386;2023-09-19T02:55:13;9.70;;;3.10;;
39674;SDS011;27790;50.840;4.386;2023-09-19T02:57:53;17.02;;;2.83;;
39674;SDS011;27790;50.840;4.386;2023-09-19T03:00:22;15.07;;;2.90;;
39674;SDS011;27790;50.840;4.386;2023-09-19T03:02:52;10.18;;;2.40;;
39674;SDS011;27790;50.840;4.386;2023-09-19T03:05:19;15.75;;;2.60;;
39674;SDS011;27790;50.840;4.386;2023-09-19T03:07:49;8.40;;;1.83;;
39674;SDS011;27790;50.840;4.386;2023-09-19T03:10:18;11.48;;;2.28;;
39674;SDS011;27790;50.840;4.386;2023-09-19T03:12:45;13.15;;;2.53;;
39674;SDS011;27790;50.840;4.386;2023-09-19T03:15:11;11.95;;;3.55;;
39674;SDS011;27790;50.840;4.386;2023-09-19T03:17:37;10.98;;;2.92;;
39674;SDS011;27790;50.840;4.386;2023-09-19T03:20:07;14.30;;;2.92;;
39674;SDS011;27790;50.840;4.386;2023-09-19T03:22:34;16.75;;;3.45;;
39674;SDS011;27790;50.840;4.386;2023-09-19T03:25:00;8.88;;;2.67;;
39674;SDS011;27790;50.840;4.386;2023-09-19T03:27:26;11.73;;;3.15;;
39674;SDS011;27790;50.840;4.386;2023-09-19T03:29:52;11.95;;;2.63;;
39674;SDS011;27790;50.840;4.386;2023-09-19T03:32:18;9.52;;;2.85;;
39674;SDS011;27790;50.840;4.386;2023-09-19T03:34:44;13.65;;;2.45;;
39674;SDS011;27790;50.840;4.386;2023-09-19T03:37:10;8.65;;;2.70;;
39674;SDS011;27790;50.840;4.386;2023-09-19T03:39:35;17.77;;;4.18;;
39674;SDS011;27790;50.840;4.386;2023-09-19T03:42:01;8.57;;;2.20;;
39674;SDS011;27790;50.840;4.386;2023-09-19T03:44:32;15.20;;;2.40;;
39674;SDS011;27790;50.840;4.386;2023-09-19T03:46:57;11.98;;;2.58;;
39674;SDS011;27790;50.840;4.386;2023-09-19T03:49:23;8.48;;;2.55;;
39674;SDS011;27790;50.840;4.386;2023-09-19T03:51:49;12.18;;;2.15;;
39674;SDS011;27790;50.840;4.386;2023-09-19T03:54:14;11.05;;;2.65;;
39674;SDS011;27790;50.840;4.386;2023-09-19T03:56:42;7.15;;;2.08;;
39674;SDS011;27790;50.840;4.386;2023-09-19T03:59:08;14.30;;;2.50;;
39674;SDS011;27790;50.840;4.386;2023-09-19T04:01:34;11.98;;;2.83;;
39674;SDS011;27790;50.840;4.386;2023-09-19T04:04:00;13.90;;;3.15;;
39674;SDS011;27790;50.840;4.386;2023-09-19T04:06:33;15.00;;;2.88;;
39674;SDS011;27790;50.840;4.386;2023-09-19T04:09:00;15.13;;;2.05;;
39674;SDS011;27790;50.840;4.386;2023-09-19T04:11:26;11.65;;;2.15;;
39674;SDS011;27790;50.840;4.386;2023-09-19T04:13:52;11.57;;;3.15;;
39674;SDS011;27790;50.840;4.386;2023-09-19T04:16:18;8.95;;;3.13;;
39674;SDS011;27790;50.840;4.386;2023-09-19T04:18:44;12.07;;;3.13;;
39674;SDS011;27790;50.840;4.386;2023-09-19T04:21:10;12.55;;;3.35;;
39674;SDS011;27790;50.840;4.386;2023-09-19T04:23:35;16.50;;;3.17;;
39674;SDS011;27790;50.840;4.386;2023-09-19T04:26:01;14.95;;;2.50;;
39674;SDS011;27790;50.840;4.386;2023-09-19T04:28:29;10.57;;;2.00;;
39674;SDS011;27790;50.840;4.386;2023-09-19T04:30:54;13.68;;;3.17;;
39674;SDS011;27790;50.840;4.386;2023-09-19T04:33:20;12.95;;;3.38;;
39674;SDS011;27790;50.840;4.386;2023-09-19T04:35:48;15.23;;;3.00;;
39674;SDS011;27790;50.840;4.386;2023-09-19T04:38:15;12.65;;;2.47;;
39674;SDS011;27790;50.840;4.386;2023-09-19T04:40:41;13.38;;;2.53;;
39674;SDS011;27790;50.840;4.386;2023-09-19T04:43:07;13.27;;;2.38;;
39674;SDS011;27790;50.840;4.386;2023-09-19T04:45:32;12.65;;;2.42;;
39674;SDS011;27790;50.840;4.386;2023-09-19T04:47:58;12.15;;;1.95;;
39674;SDS011;27790;50.840;4.386;2023-09-19T04:50:24;12.23;;;2.42;;
39674;SDS011;27790;50.840;4.386;2023-09-19T04:52:52;11.90;;;2.80;;
39674;SDS011;27790;50.840;4.386;2023-09-19T04:55:18;12.88;;;2.95;;
39674;SDS011;27790;50.840;4.386;2023-09-19T04:57:45;10.10;;;2.22;;
39674;SDS011;27790;50.840;4.386;2023-09-19T05:00:15;12.55;;;2.33;;
39674;SDS011;27790;50.840;4.386;2023-09-19T05:02:44;12.88;;;2.50;;
39674;SDS011;27790;50.840;4.386;2023-09-19T05:05:10;9.95;;;2.70;;
39674;SDS011;27790;50.840;4.386;2023-09-19T05:07:37;19.63;;;2.53;;
39674;SDS011;27790;50.840;4.386;2023-09-19T05:10:04;14.68;;;2.72;;
39674;SDS011;27790;50.840;4.386;2023-09-19T05:12:32;13.27;;;3.05;;
39674;SDS011;27790;50.840;4.386;2023-09-19T05:15:04;11.40;;;2.28;;
39674;SDS011;27790;50.840;4.386;2023-09-19T05:17:31;13.18;;;2.55;;
39674;SDS011;27790;50.840;4.386;2023-09-19T05:19:58;12.25;;;2.28;;
39674;SDS011;27790;50.840;4.386;2023-09-19T05:22:23;9.88;;;2.88;;
39674;SDS011;27790;50.840;4.386;2023-09-19T05:24:51;11.75;;;2.10;;
39674;SDS011;27790;50.840;4.386;2023-09-19T05:27:18;16.63;;;2.25;;
39674;SDS011;27790;50.840;4.386;2023-09-19T05:29:45;9.50;;;3.20;;
39674;SDS011;27790;50.840;4.386;2023-09-19T05:32:11;18.38;;;3.83;;
39674;SDS011;27790;50.840;4.386;2023-09-19T05:34:37;13.48;;;2.58;;
39674;SDS011;27790;50.840;4.386;2023-09-19T05:37:03;13.80;;;2.90;;
39674;SDS011;27790;50.840;4.386;2023-09-19T05:39:32;10.70;;;2.65;;
39674;SDS011;27790;50.840;4.386;2023-09-19T05:41:58;20.63;;;3.13;;
39674;SDS011;27790;50.840;4.386;2023-09-19T05:44:25;19.85;;;2.97;;
39674;SDS011;27790;50.840;4.386;2023-09-19T05:46:51;15.98;;;3.30;;
39674;SDS011;27790;50.840;4.386;2023-09-19T05:49:17;18.60;;;2.72;;
39674;SDS011;27790;50.840;4.386;2023-09-19T05:51:43;19.15;;;2.85;;
39674;SDS011;27790;50.840;4.386;2023-09-19T05:54:08;14.35;;;2.42;;
39674;SDS011;27790;50.840;4.386;2023-09-19T05:56:36;18.67;;;3.47;;
39674;SDS011;27790;50.840;4.386;2023-09-19T05:59:01;21.92;;;3.42;;
39674;SDS011;27790;50.840;4.386;2023-09-19T06:01:28;32.08;;;3.63;;
39674;SDS011;27790;50.840;4.386;2023-09-19T06:03:56;11.82;;;3.08;;
39674;SDS011;27790;50.840;4.386;2023-09-19T06:06:21;10.95;;;2.05;;
39674;SDS011;27790;50.840;4.386;2023-09-19T06:08:49;13.65;;;2.63;;
39674;SDS011;27790;50.840;4.386;2023-09-19T06:11:15;24.02;;;3.00;;
39674;SDS011;27790;50.840;4.386;2023-09-19T06:13:41;17.35;;;3.58;;
39674;SDS011;27790;50.840;4.386;2023-09-19T06:16:06;11.07;;;2.22;;
39674;SDS011;27790;50.840;4.386;2023-09-19T06:18:32;11.05;;;2.42;;
39674;SDS011;27790;50.840;4.386;2023-09-19T06:21:01;12.43;;;2.53;;
39674;SDS011;27790;50.840;4.386;2023-09-19T06:23:32;10.68;;;2.28;;
39674;SDS011;27790;50.840;4.386;2023-09-19T06:25:59;20.73;;;3.45;;
39674;SDS011;27790;50.840;4.386;2023-09-19T06:28:24;10.30;;;3.10;;
39674;SDS011;27790;50.840;4.386;2023-09-19T06:30:53;24.98;;;2.80;;
39674;SDS011;27790;50.840;4.386;2023-09-19T06:33:22;12.70;;;2.58;;
39674;SDS011;27790;50.840;4.386;2023-09-19T06:35:48;16.17;;;2.17;;
39674;SDS011;27790;50.840;4.386;2023-09-19T06:38:13;18.45;;;3.15;;
39674;SDS011;27790;50.840;4.386;2023-09-19T06:40:40;8.95;;;2.05;;
39674;SDS011;27790;50.840;4.386;2023-09-19T06:43:08;11.98;;;2.97;;
39674;SDS011;27790;50.840;4.386;2023-09-19T06:45:37;12.98;;;3.13;;
39674;SDS011;27790;50.840;4.386;2023-09-19T06:48:03;15.18;;;2.88;;
39674;SDS011;27790;50.840;4.386;2023-09-19T06:50:29;15.20;;;3.17;;
39674;SDS011;27790;50.840;4.386;2023-09-19T06:52:58;9.93;;;2.80;;
39674;SDS011;27790;50.840;4.386;2023-09-19T06:55:24;12.70;;;3.50;;
39674;SDS011;27790;50.840;4.386;2023-09-19T06:57:52;9.55;;;2.38;;
39674;SDS011;27790;50.840;4.386;2023-09-19T07:00:21;14.10;;;2.97;;
39674;SDS011;27790;50.840;4.386;2023-09-19T07:05:25;8.85;;;2.80;;
39674;SDS011;27790;50.840;4.386;2023-09-19T07:10:17;13.43;;;3.00;;
39674;SDS011;27790;50.840;4.386;2023-09-19T07:12:45;10.07;;;2.60;;
39674;SDS011;27790;50.840;4.386;2023-09-19T07:15:10;15.30;;;2.55;;
39674;SDS011;27790;50.840;4.386;2023-09-19T07:17:36;15.93;;;2.50;;
39674;SDS011;27790;50.840;4.386;2023-09-19T07:20:02;11.82;;;2.67;;
39674;SDS011;27790;50.840;4.386;2023-09-19T07:22:32;9.05;;;2.45;;
39674;SDS011;27790;50.840;4.386;2023-09-19T07:24:58;12.02;;;3.83;;
39674;SDS011;27790;50.840;4.386;2023-09-19T07:27:24;9.18;;;2.92;;
39674;SDS011;27790;50.840;4.386;2023-09-19T07:29:50;23.73;;;3.53;;
39674;SDS011;27790;50.840;4.386;2023-09-19T07:32:16;13.32;;;2.05;;
39674;SDS011;27790;50.840;4.386;2023-09-19T07:34:42;13.45;;;2.45;;
39674;SDS011;27790;50.840;4.386;2023-09-19T07:37:09;15.50;;;3.22;;
39674;SDS011;27790;50.840;4.386;2023-09-19T07:39:36;12.95;;;2.53;;
39674;SDS011;27790;50.840;4.386;2023-09-19T07:42:01;9.18;;;2.63;;
39674;SDS011;27790;50.840;4.386;2023-09-19T07:44:27;18.95;;;2.88;;
39674;SDS011;27790;50.840;4.386;2023-09-19T07:46:53;13.75;;;2.95;;
39674;SDS011;27790;50.840;4.386;2023-09-19T07:49:19;6.72;;;2.20;;
39674;SDS011;27790;50.840;4.386;2023-09-19T07:51:45;13.20;;;2.92;;
39674;SDS011;27790;50.840;4.386;2023-09-19T07:54:11;17.58;;;3.00;;
39674;SDS011;27790;50.840;4.386;2023-09-19T07:56:37;10.27;;;2.53;;
39674;SDS011;27790;50.840;4.386;2023-09-19T07:59:03;18.45;;;4.00;;
39674;SDS011;27790;50.840;4.386;2023-09-19T08:01:29;11.00;;;3.03;;
39674;SDS011;27790;50.840;4.386;2023-09-19T08:03:54;11.98;;;2.67;;
39674;SDS011;27790;50.840;4.386;2023-09-19T08:06:20;18.95;;;3.08;;
39674;SDS011;27790;50.840;4.386;2023-09-19T08:08:45;16.90;;;2.92;;
39674;SDS011;27790;50.840;4.386;2023-09-19T08:11:11;14.23;;;2.75;;
39674;SDS011;27790;50.840;4.386;2023-09-19T08:13:38;9.80;;;3.22;;
39674;SDS011;27790;50.840;4.386;2023-09-19T08:16:12;14.57;;;2.70;;
39674;SDS011;27790;50.840;4.386;2023-09-19T08:18:40;11.35;;;2.92;;
39674;SDS011;27790;50.840;4.386;2023-09-19T08:21:06;18.25;;;3.42;;
39674;SDS011;27790;50.840;4.386;2023-09-19T08:23:39;10.27;;;2.85;;
39674;SDS011;27790;50.840;4.386;2023-09-19T08:26:05;23.67;;;3.03;;
39674;SDS011;27790;50.840;4.386;2023-09-19T08:28:35;10.77;;;2.70;;
39674;SDS011;27790;50.840;4.386;2023-09-19T08:31:05;15.88;;;3.20;;
39674;SDS011;27790;50.840;4.386;2023-09-19T08:33:36;11.18;;;3.10;;
39674;SDS011;27790;50.840;4.386;2023-09-19T08:36:02;12.32;;;2.40;;
39674;SDS011;27790;50.840;4.386;2023-09-19T08:38:33;8.77;;;2.90;;
39674;SDS011;27790;50.840;4.386;2023-09-19T08:41:00;18.05;;;3.75;;
39674;SDS011;27790;50.840;4.386;2023-09-19T08:43:26;20.70;;;2.65;;
39674;SDS011;27790;50.840;4.386;2023-09-19T08:45:57;15.98;;;3.13;;
39674;SDS011;27790;50.840;4.386;2023-09-19T08:48:33;11.63;;;2.40;;
39674;SDS011;27790;50.840;4.386;2023-09-19T08:51:18;11.75;;;2.65;;
39674;SDS011;27790;50.840;4.386;2023-09-19T08:53:58;17.35;;;3.22;;
39674;SDS011;27790;50.840;4.386;2023-09-19T08:56:34;6.38;;;2.05;;
39674;SDS011;27790;50.840;4.386;2023-09-19T08:59:04;11.23;;;3.25;;
39674;SDS011;27790;50.840;4.386;2023-09-19T09:01:33;13.10;;;2.85;;
39674;SDS011;27790;50.840;4.386;2023-09-19T09:04:01;14.18;;;3.70;;
39674;SDS011;27790;50.840;4.386;2023-09-19T09:06:27;12.52;;;2.38;;
39674;SDS011;27790;50.840;4.386;2023-09-19T09:08:53;19.38;;;4.25;;
39674;SDS011;27790;50.840;4.386;2023-09-19T09:11:19;14.10;;;2.67;;
39674;SDS011;27790;50.840;4.386;2023-09-19T09:13:46;13.68;;;2.65;;
39674;SDS011;27790;50.840;4.386;2023-09-19T09:16:13;45.92;;;5.13;;
39674;SDS011;27790;50.840;4.386;2023-09-19T09:18:42;23.50;;;3.00;;
39674;SDS011;27790;50.840;4.386;2023-09-19T09:21:09;16.80;;;2.78;;
39674;SDS011;27790;50.840;4.386;2023-09-19T09:23:35;12.07;;;2.10;;
39674;SDS011;27790;50.840;4.386;2023-09-19T09:26:00;13.50;;;2.40;;
39674;SDS011;27790;50.840;4.386;2023-09-19T09:28:31;8.52;;;1.90;;
39674;SDS011;27790;50.840;4.386;2023-09-19T09:31:04;8.77;;;2.30;;
39674;SDS011;27790;50.840;4.386;2023-09-19T09:33:34;10.05;;;1.98;;
39674;SDS011;27790;50.840;4.386;2023-09-19T09:36:03;11.55;;;2.00;;
39674;SDS011;27790;50.840;4.386;2023-09-19T09:41:10;11.05;;;3.13;;
39674;SDS011;27790;50.840;4.386;2023-09-19T09:43:40;14.60;;;2.88;;
39674;SDS011;27790;50.840;4.386;2023-09-19T09:46:16;25.08;;;3.25;;
39674;SDS011;27790;50.840;4.386;2023-09-19T09:48:46;10.48;;;1.77;;
39674;SDS011;27790;50.840;4.386;2023-09-19T09:51:33;16.88;;;2.13;;
39674;SDS011;27790;50.840;4.386;2023-09-19T09:54:11;21.27;;;3.28;;
39674;SDS011;27790;50.840;4.386;2023-09-19T09:56:56;7.43;;;2.13;;
39674;SDS011;27790;50.840;4.386;2023-09-19T09:59:43;6.45;;;1.50;;
39674;SDS011;27790;50.840;4.386;2023-09-19T10:02:35;11.93;;;2.50;;
39674;SDS011;27790;50.840;4.386;2023-09-19T10:05:11;7.65;;;2.40;;
39674;SDS011;27790;50.840;4.386;2023-09-19T10:07:47;8.70;;;1.70;;
39674;SDS011;27790;50.840;4.386;2023-09-19T10:10:29;12.38;;;1.88;;
39674;SDS011;27790;50.840;4.386;2023-09-19T10:13:08;14.50;;;2.35;;
39674;SDS011;27790;50.840;4.386;2023-09-19T10:15:40;11.68;;;1.52;;
39674;SDS011;27790;50.840;4.386;2023-09-19T10:18:17;9.60;;;1.35;;
39674;SDS011;27790;50.840;4.386;2023-09-19T10:20:46;13.82;;;2.63;;
39674;SDS011;27790;50.840;4.386;2023-09-19T10:23:14;6.88;;;1.70;;
39674;SDS011;27790;50.840;4.386;2023-09-19T10:25:47;4.75;;;1.25;;
39674;SDS011;27790;50.840;4.386;2023-09-19T10:28:14;9.70;;;1.73;;
39674;SDS011;27790;50.840;4.386;2023-09-19T10:30:44;6.20;;;1.55;;
39674;SDS011;27790;50.840;4.386;2023-09-19T10:33:35;8.73;;;1.63;;
39674;SDS011;27790;50.840;4.386;2023-09-19T10:36:02;10.27;;;2.08;;
39674;SDS011;27790;50.840;4.386;2023-09-19T10:38:30;18.45;;;2.38;;
39674;SDS011;27790;50.840;4.386;2023-09-19T10:41:00;9.93;;;2.75;;
39674;SDS011;27790;50.840;4.386;2023-09-19T10:43:31;9.75;;;1.40;;
39674;SDS011;27790;50.840;4.386;2023-09-19T10:46:02;7.90;;;1.45;;
39674;SDS011;27790;50.840;4.386;2023-09-19T10:48:31;16.02;;;1.98;;
39674;SDS011;27790;50.840;4.386;2023-09-19T10:50:58;18.95;;;2.28;;
39674;SDS011;27790;50.840;4.386;2023-09-19T10:53:45;16.50;;;2.08;;
39674;SDS011;27790;50.840;4.386;2023-09-19T10:56:33;13.63;;;1.90;;
39674;SDS011;27790;50.840;4.386;2023-09-19T10:59:12;12.68;;;1.50;;
39674;SDS011;27790;50.840;4.386;2023-09-19T11:07:01;12.70;;;1.50;;
39674;SDS011;27790;50.840;4.386;2023-09-19T11:09:47;7.78;;;1.60;;
39674;SDS011;27790;50.840;4.386;2023-09-19T11:15:02;4.15;;;0.90;;
39674;SDS011;27790;50.840;4.386;2023-09-19T11:30:37;9.55;;;1.48;;
39674;SDS011;27790;50.840;4.386;2023-09-19T11:33:29;8.10;;;1.70;;
39674;SDS011;27790;50.840;4.386;2023-09-19T11:43:50;14.50;;;1.60;;
39674;SDS011;27790;50.840;4.386;2023-09-19T11:46:28;5.72;;;1.35;;
39674;SDS011;27790;50.840;4.386;2023-09-19T11:49:07;10.40;;;2.22;;
39674;SDS011;27790;50.840;4.386;2023-09-19T11:51:44;10.73;;;2.00;;
39674;SDS011;27790;50.840;4.386;2023-09-19T11:54:11;11.88;;;1.63;;
39674;SDS011;27790;50.840;4.386;2023-09-19T11:56:50;8.55;;;1.75;;
39674;SDS011;27790;50.840;4.386;2023-09-19T11:59:25;22.83;;;2.90;;
39674;SDS011;27790;50.840;4.386;2023-09-19T12:01:55;9.27;;;1.35;;
39674;SDS011;27790;50.840;4.386;2023-09-19T12:04:39;6.25;;;1.33;;
39674;SDS011;27790;50.840;4.386;2023-09-19T12:07:12;7.82;;;1.58;;
39674;SDS011;27790;50.840;4.386;2023-09-19T12:09:42;5.72;;;1.27;;
39674;SDS011;27790;50.840;4.386;2023-09-19T12:12:18;4.10;;;0.73;;
39674;SDS011;27790;50.840;4.386;2023-09-19T12:14:48;7.00;;;0.98;;
39674;SDS011;27790;50.840;4.386;2023-09-19T12:17:17;11.88;;;1.15;;
39674;SDS011;27790;50.840;4.386;2023-09-19T12:19:50;3.55;;;1.17;;
39674;SDS011;27790;50.840;4.386;2023-09-19T12:22:20;11.65;;;1.35;;
39674;SDS011;27790;50.840;4.386;2023-09-19T12:24:46;14.57;;;1.85;;
39674;SDS011;27790;50.840;4.386;2023-09-19T12:27:12;6.93;;;1.35;;
39674;SDS011;27790;50.840;4.386;2023-09-19T12:29:45;26.77;;;1.60;;
39674;SDS011;27790;50.840;4.386;2023-09-19T12:32:14;6.30;;;1.10;;
39674;SDS011;27790;50.840;4.386;2023-09-19T12:34:42;8.52;;;1.10;;
39674;SDS011;27790;50.840;4.386;2023-09-19T12:37:15;7.82;;;1.52;;
39674;SDS011;27790;50.840;4.386;2023-09-19T12:39:45;6.85;;;1.10;;
39674;SDS011;27790;50.840;4.386;2023-09-19T12:42:14;12.80;;;1.48;;
39674;SDS011;27790;50.840;4.386;2023-09-19T12:44:41;3.70;;;1.10;;
39674;SDS011;27790;50.840;4.386;2023-09-19T12:47:15;8.02;;;1.30;;
39674;SDS011;27790;50.840;4.386;2023-09-19T12:52:46;9.05;;;1.10;;
39674;SDS011;27790;50.840;4.386;2023-09-19T12:55:23;12.48;;;1.48;;
39674;SDS011;27790;50.840;4.386;2023-09-19T13:00:33;9.10;;;1.20;;
39674;SDS011;27790;50.840;4.386;2023-09-19T13:03:13;10.65;;;1.40;;
39674;SDS011;27790;50.840;4.386;2023-09-19T13:08:28;4.78;;;0.90;;
39674;SDS011;27790;50.840;4.386;2023-09-19T13:11:14;3.63;;;1.00;;
39674;SDS011;27790;50.840;4.386;2023-09-19T13:16:29;1.58;;;1.02;;
39674;SDS011;27790;50.840;4.386;2023-09-19T13:18:55;5.18;;;1.10;;
39674;SDS011;27790;50.840;4.386;2023-09-19T13:21:29;4.80;;;1.10;;
39674;SDS011;27790;50.840;4.386;2023-09-19T13:24:23;5.70;;;1.00;;
39674;SDS011;27790;50.840;4.386;2023-09-19T13:26:53;10.65;;;1.48;;
39674;SDS011;27790;50.840;4.386;2023-09-19T13:29:19;6.72;;;1.00;;
39674;SDS011;27790;50.840;4.386;2023-09-19T13:31:46;5.15;;;1.27;;
39674;SDS011;27790;50.840;4.386;2023-09-19T13:34:16;2.85;;;1.08;;
39674;SDS011;27790;50.840;4.386;2023-09-19T13:36:43;6.45;;;1.20;;
39674;SDS011;27790;50.840;4.386;2023-09-19T13:39:09;3.88;;;0.93;;
39674;SDS011;27790;50.840;4.386;2023-09-19T13:41:35;7.68;;;1.45;;
39674;SDS011;27790;50.840;4.386;2023-09-19T13:44:04;5.85;;;1.38;;
39674;SDS011;27790;50.840;4.386;2023-09-19T13:46:29;10.98;;;2.55;;
39674;SDS011;27790;50.840;4.386;2023-09-19T13:48:58;16.75;;;1.73;;
39674;SDS011;27790;50.840;4.386;2023-09-19T13:51:25;4.90;;;0.95;;
39674;SDS011;27790;50.840;4.386;2023-09-19T13:53:51;6.15;;;1.10;;
39674;SDS011;27790;50.840;4.386;2023-09-19T13:56:17;13.65;;;2.25;;
39674;SDS011;27790;50.840;4.386;2023-09-19T13:58:42;6.10;;;1.00;;
39674;SDS011;27790;50.840;4.386;2023-09-19T14:01:08;6.78;;;1.00;;
39674;SDS011;27790;50.840;4.386;2023-09-19T14:03:38;7.45;;;2.30;;
39674;SDS011;27790;50.840;4.386;2023-09-19T14:06:18;7.70;;;1.40;;
39674;SDS011;27790;50.840;4.386;2023-09-19T14:08:44;4.43;;;1.15;;
39674;SDS011;27790;50.840;4.386;2023-09-19T14:11:13;15.80;;;1.85;;
39674;SDS011;27790;50.840;4.386;2023-09-19T14:13:41;7.43;;;1.58;;
39674;SDS011;27790;50.840;4.386;2023-09-19T14:16:12;6.60;;;1.42;;
39674;SDS011;27790;50.840;4.386;2023-09-19T14:18:37;3.50;;;1.17;;
39674;SDS011;27790;50.840;4.386;2023-09-19T14:21:03;8.68;;;2.15;;
39674;SDS011;27790;50.840;4.386;2023-09-19T14:23:34;5.55;;;1.33;;
39674;SDS011;27790;50.840;4.386;2023-09-19T14:26:03;6.70;;;1.73;;
39674;SDS011;27790;50.840;4.386;2023-09-19T14:28:30;11.00;;;1.80;;
39674;SDS011;27790;50.840;4.386;2023-09-19T14:30:56;3.90;;;1.20;;
39674;SDS011;27790;50.840;4.386;2023-09-19T14:33:23;4.63;;;1.25;;
39674;SDS011;27790;50.840;4.386;2023-09-19T14:35:49;3.35;;;0.98;;
39674;SDS011;27790;50.840;4.386;2023-09-19T14:38:15;18.48;;;1.27;;
39674;SDS011;27790;50.840;4.386;2023-09-19T14:40:40;10.40;;;2.08;;
39674;SDS011;27790;50.840;4.386;2023-09-19T14:43:07;4.38;;;1.55;;
39674;SDS011;27790;50.840;4.386;2023-09-19T14:45:35;6.18;;;1.40;;
39674;SDS011;27790;50.840;4.386;2023-09-19T14:48:01;9.07;;;2.13;;
39674;SDS011;27790;50.840;4.386;2023-09-19T14:50:30;6.88;;;1.10;;
39674;SDS011;27790;50.840;4.386;2023-09-19T14:52:55;7.38;;;1.70;;
39674;SDS011;27790;50.840;4.386;2023-09-19T14:55:21;3.75;;;1.50;;
39674;SDS011;27790;50.840;4.386;2023-09-19T14:57:51;2.25;;;1.10;;
39674;SDS011;27790;50.840;4.386;2023-09-19T15:00:18;6.80;;;1.60;;
39674;SDS011;27790;50.840;4.386;2023-09-19T15:02:45;5.15;;;1.15;;
39674;SDS011;27790;50.840;4.386;2023-09-19T15:05:13;4.95;;;1.48;;
39674;SDS011;27790;50.840;4.386;2023-09-19T15:07:40;7.07;;;1.80;;
39674;SDS011;27790;50.840;4.386;2023-09-19T15:10:06;5.38;;;1.55;;
39674;SDS011;27790;50.840;4.386;2023-09-19T15:12:35;5.70;;;1.35;;
39674;SDS011;27790;50.840;4.386;2023-09-19T15:15:02;6.15;;;1.52;;
39674;SDS011;27790;50.840;4.386;2023-09-19T15:17:35;5.72;;;1.90;;
39674;SDS011;27790;50.840;4.386;2023-09-19T15:20:01;7.57;;;1.27;;
39674;SDS011;27790;50.840;4.386;2023-09-19T15:22:27;6.60;;;1.67;;
39674;SDS011;27790;50.840;4.386;2023-09-19T15:24:52;10.40;;;2.30;;
39674;SDS011;27790;50.840;4.386;2023-09-19T15:27:18;4.60;;;2.20;;
39674;SDS011;27790;50.840;4.386;2023-09-19T15:29:45;3.38;;;1.60;;
39674;SDS011;27790;50.840;4.386;2023-09-19T15:32:11;10.27;;;1.75;;
39674;SDS011;27790;50.840;4.386;2023-09-19T15:34:37;2.97;;;1.38;;
39674;SDS011;27790;50.840;4.386;2023-09-19T15:37:02;6.07;;;1.45;;
39674;SDS011;27790;50.840;4.386;2023-09-19T15:39:31;11.90;;;1.70;;
39674;SDS011;27790;50.840;4.386;2023-09-19T15:41:59;5.53;;;1.50;;
39674;SDS011;27790;50.840;4.386;2023-09-19T15:44:25;4.78;;;1.30;;
39674;SDS011;27790;50.840;4.386;2023-09-19T15:46:53;8.10;;;1.88;;
39674;SDS011;27790;50.840;4.386;2023-09-19T15:49:19;4.47;;;1.30;;
39674;SDS011;27790;50.840;4.386;2023-09-19T15:51:45;4.82;;;1.33;;
39674;SDS011;27790;50.840;4.386;2023-09-19T15:54:12;8.07;;;1.42;;
39674;SDS011;27790;50.840;4.386;2023-09-19T15:56:41;10.15;;;1.63;;
39674;SDS011;27790;50.840;4.386;2023-09-19T15:59:08;4.88;;;1.27;;